createdAt,value
2022-09-16T00:01:43.824Z,46.34
2022-09-16T00:04:11.535Z,46.59
2022-09-16T00:06:39.280Z,46.12
2022-09-16T00:09:07.070Z,46.75
2022-09-16T00:11:35.461Z,46.12
2022-09-16T00:14:03.141Z,46.58
2022-09-16T00:16:30.887Z,46.31
2022-09-16T00:18:59.838Z,46.61
2022-09-16T00:21:27.648Z,46.35
2022-09-16T00:23:55.375Z,46.25
2022-09-16T00:26:23.449Z,46.34
2022-09-16T00:28:51.529Z,46.53
2022-09-16T00:31:19.361Z,46.45
2022-09-16T00:33:47.163Z,46.45
2022-09-16T00:36:15.042Z,46.78
2022-09-16T00:38:42.772Z,46.24
2022-09-16T00:41:10.502Z,46.15
2022-09-16T00:43:38.474Z,46.30
2022-09-16T00:46:06.165Z,46.67
2022-09-16T00:48:34.173Z,46.10
2022-09-16T00:51:01.898Z,46.72
2022-09-16T00:53:29.735Z,46.32
2022-09-16T00:55:57.420Z,46.24
2022-09-16T00:58:25.087Z,46.79
2022-09-16T01:00:52.758Z,46.62
2022-09-16T01:03:20.481Z,46.35
2022-09-16T01:05:48.238Z,46.27
2022-09-16T01:08:16.315Z,46.25
2022-09-16T01:10:44.028Z,46.59
2022-09-16T01:13:11.767Z,46.77
2022-09-16T01:15:39.481Z,46.37
2022-09-16T01:18:07.136Z,46.62
2022-09-16T01:20:34.820Z,46.20
2022-09-16T01:23:02.521Z,46.19
2022-09-16T01:25:30.202Z,46.21
2022-09-16T01:27:58.094Z,46.20
2022-09-16T01:30:25.764Z,46.02
2022-09-16T01:32:53.553Z,46.22
2022-09-16T01:35:21.500Z,46.48
2022-09-16T01:37:49.154Z,46.44
2022-09-16T01:40:16.884Z,46.61
2022-09-16T01:42:47.113Z,46.61
2022-09-16T01:45:14.773Z,46.29
2022-09-16T01:47:42.471Z,46.33
2022-09-16T01:50:10.116Z,46.38
2022-09-16T01:52:37.795Z,46.67
2022-09-16T01:55:05.491Z,46.44
2022-09-16T01:57:33.320Z,46.52
2022-09-16T02:00:00.974Z,46.18
2022-09-16T02:02:29.449Z,46.51
2022-09-16T02:04:57.232Z,46.04
2022-09-16T02:07:24.903Z,46.10
2022-09-16T02:09:52.656Z,46.44
2022-09-16T02:12:20.340Z,46.70
2022-09-16T02:14:48.039Z,46.52
2022-09-16T02:17:15.764Z,46.03
2022-09-16T02:19:43.471Z,46.14
2022-09-16T02:22:11.126Z,46.36
2022-09-16T02:24:39.342Z,46.52
2022-09-16T02:27:08.779Z,46.60
2022-09-16T02:29:36.431Z,46.03
2022-09-16T02:32:04.119Z,46.10
2022-09-16T02:34:31.936Z,46.45
2022-09-16T02:36:59.587Z,46.11
2022-09-16T02:39:27.428Z,46.24
2022-09-16T02:41:55.281Z,46.33
2022-09-16T02:44:23.074Z,46.40
2022-09-16T02:46:50.847Z,46.49
2022-09-16T02:49:18.850Z,46.11
2022-09-16T02:51:47.040Z,46.04
2022-09-16T02:54:14.709Z,46.47
2022-09-16T02:56:42.620Z,46.48
2022-09-16T02:59:10.485Z,46.07
2022-09-16T03:01:38.201Z,46.36
2022-09-16T03:04:06.410Z,45.85
2022-09-16T03:06:36.317Z,45.85
2022-09-16T03:09:04.008Z,46.10
2022-09-16T03:11:31.690Z,46.06
2022-09-16T03:13:59.468Z,46.02
2022-09-16T03:16:27.245Z,46.32
2022-09-16T03:18:55.095Z,46.26
2022-09-16T03:21:23.055Z,46.39
2022-09-16T03:23:50.718Z,45.95
2022-09-16T03:26:18.432Z,45.93
2022-09-16T03:28:46.151Z,46.34
2022-09-16T03:31:13.985Z,46.01
2022-09-16T03:33:41.753Z,46.46
2022-09-16T03:36:09.514Z,46.17
2022-09-16T03:38:37.314Z,46.35
2022-09-16T03:41:05.000Z,45.99
2022-09-16T03:43:32.706Z,46.58
2022-09-16T03:46:00.773Z,46.41
2022-09-16T03:48:28.482Z,45.89
2022-09-16T03:50:56.112Z,46.46
2022-09-16T03:53:23.760Z,46.29
2022-09-16T03:55:51.418Z,46.04
2022-09-16T03:58:19.117Z,45.83
2022-09-16T04:00:46.795Z,46.48
2022-09-16T04:03:14.446Z,45.94
2022-09-16T04:05:42.185Z,46.40
2022-09-16T04:08:10.029Z,45.87
2022-09-16T04:10:37.659Z,45.94
2022-09-16T04:13:05.334Z,46.01
2022-09-16T04:15:35.096Z,45.93
2022-09-16T04:18:03.110Z,46.37
2022-09-16T04:20:30.748Z,46.41
2022-09-16T04:22:58.682Z,46.47
2022-09-16T04:25:26.364Z,46.46
2022-09-16T04:27:54.027Z,46.18
2022-09-16T04:30:21.743Z,46.49
2022-09-16T04:32:49.431Z,46.84
2022-09-16T04:35:19.507Z,46.48
2022-09-16T04:37:47.505Z,46.72
2022-09-16T04:40:15.315Z,47.09
2022-09-16T04:42:42.997Z,47.20
2022-09-16T04:45:10.705Z,47.22
2022-09-16T04:47:38.396Z,46.68
2022-09-16T04:50:06.549Z,46.75
2022-09-16T04:52:34.465Z,46.54
2022-09-16T04:55:02.204Z,46.55
2022-09-16T04:57:29.875Z,46.41
2022-09-16T04:59:57.527Z,46.41
2022-09-16T05:02:25.197Z,46.49
2022-09-16T05:04:52.887Z,46.43
2022-09-16T05:07:20.722Z,46.49
2022-09-16T05:09:48.582Z,46.76
2022-09-16T05:12:16.245Z,46.83
2022-09-16T05:14:44.026Z,46.35
2022-09-16T05:17:19.331Z,46.29
2022-09-16T05:19:59.509Z,46.33
2022-09-16T05:22:27.325Z,46.72
2022-09-16T05:24:55.238Z,46.89
2022-09-16T05:27:23.396Z,46.78
2022-09-16T05:29:51.101Z,46.52
2022-09-16T05:32:18.819Z,46.36
2022-09-16T05:34:46.549Z,46.34
2022-09-16T05:37:14.282Z,46.22
2022-09-16T05:39:41.996Z,46.68
2022-09-16T05:42:09.682Z,46.71
2022-09-16T05:44:37.627Z,46.75
2022-09-16T05:47:05.250Z,46.52
2022-09-16T05:49:32.997Z,46.34
2022-09-16T05:52:00.653Z,46.10
2022-09-16T05:54:28.286Z,46.09
2022-09-16T05:56:55.965Z,46.47
2022-09-16T05:59:24.087Z,45.99
2022-09-16T06:01:51.814Z,46.07
2022-09-16T06:04:19.508Z,46.22
2022-09-16T06:06:47.203Z,46.60
2022-09-16T06:09:14.928Z,46.14
2022-09-16T06:11:42.628Z,46.65
2022-09-16T06:14:10.275Z,46.63
2022-09-16T06:16:37.938Z,46.16
2022-09-16T06:19:05.636Z,46.52
2022-09-16T06:21:33.527Z,46.15
2022-09-16T06:24:01.195Z,46.15
2022-09-16T06:26:29.010Z,46.14
2022-09-16T06:28:56.651Z,46.00
2022-09-16T06:31:24.421Z,46.04
2022-09-16T06:33:52.084Z,46.30
2022-09-16T06:36:19.762Z,46.26
2022-09-16T06:38:47.457Z,46.49
2022-09-16T06:41:15.161Z,46.09
2022-09-16T06:43:42.853Z,45.91
2022-09-16T06:46:13.638Z,46.42
2022-09-16T06:48:42.246Z,46.49
2022-09-16T06:51:09.956Z,45.95
2022-09-16T06:53:37.613Z,45.95
2022-09-16T06:56:05.480Z,46.29
2022-09-16T06:58:33.123Z,46.34
2022-09-16T07:01:01.029Z,46.30
2022-09-16T07:03:28.717Z,46.38
2022-09-16T07:05:56.854Z,45.95
2022-09-16T07:08:24.894Z,46.23
2022-09-16T07:10:52.726Z,46.21
2022-09-16T07:13:20.443Z,46.14
2022-09-16T07:16:11.920Z,46.18
2022-09-16T07:18:36.028Z,46.45
2022-09-16T07:21:04.441Z,45.80
2022-09-16T07:23:32.468Z,46.18
2022-09-16T07:26:00.161Z,45.75
2022-09-16T07:28:27.880Z,46.20
2022-09-16T07:30:55.987Z,45.78
2022-09-16T07:33:23.766Z,46.10
2022-09-16T07:35:51.437Z,45.89
2022-09-16T07:38:19.151Z,45.89
2022-09-16T07:40:46.858Z,45.92
2022-09-16T07:43:14.542Z,46.35
2022-09-16T07:45:42.265Z,45.76
2022-09-16T07:48:10.261Z,45.95
2022-09-16T07:50:37.894Z,46.05
2022-09-16T07:53:05.584Z,45.89
2022-09-16T07:55:33.269Z,45.94
2022-09-16T07:58:00.990Z,46.11
2022-09-16T08:00:28.693Z,46.13
2022-09-16T08:02:56.459Z,46.33
2022-09-16T08:05:24.186Z,45.81
2022-09-16T08:07:51.905Z,46.30
2022-09-16T08:10:19.589Z,45.53
2022-09-16T08:12:47.281Z,46.13
2022-09-16T08:15:14.991Z,46.10
2022-09-16T08:17:42.666Z,46.23
2022-09-16T08:20:10.392Z,46.03
2022-09-16T08:22:38.055Z,46.26
2022-09-16T08:25:05.829Z,46.13
2022-09-16T08:27:33.513Z,46.34
2022-09-16T08:30:01.313Z,45.78
2022-09-16T08:32:28.955Z,46.29
2022-09-16T08:34:56.654Z,46.05
2022-09-16T08:37:24.336Z,46.10
2022-09-16T08:39:52.217Z,45.83
2022-09-16T08:42:22.079Z,46.05
2022-09-16T08:44:52.589Z,45.58
2022-09-16T08:47:20.251Z,45.54
2022-09-16T08:49:48.060Z,45.77
2022-09-16T08:52:15.739Z,45.63
2022-09-16T08:54:43.480Z,45.97
2022-09-16T08:57:11.180Z,46.26
2022-09-16T08:59:38.891Z,45.71
2022-09-16T09:02:09.485Z,45.61
2022-09-16T09:04:37.629Z,45.65
2022-09-16T09:07:05.392Z,45.50
2022-09-16T09:09:33.128Z,46.19
2022-09-16T09:12:00.938Z,45.38
2022-09-16T09:14:29.960Z,46.02
2022-09-16T09:16:57.668Z,45.83
2022-09-16T09:19:25.463Z,45.76
2022-09-16T09:21:53.216Z,45.57
2022-09-16T09:24:20.933Z,45.91
2022-09-16T09:26:48.621Z,46.00
2022-09-16T09:29:16.373Z,45.88
2022-09-16T09:31:44.641Z,46.11
2022-09-16T09:34:12.365Z,46.19
2022-09-16T09:36:40.124Z,45.74
2022-09-16T09:39:07.882Z,46.12
2022-09-16T09:41:35.596Z,46.11
2022-09-16T09:44:03.335Z,45.62
2022-09-16T09:46:31.226Z,45.50
2022-09-16T09:48:58.997Z,45.76
2022-09-16T09:51:27.874Z,45.69
2022-09-16T09:53:55.584Z,45.80
2022-09-16T09:56:23.253Z,46.16
2022-09-16T09:58:50.962Z,46.14
2022-09-16T10:01:18.703Z,45.96
2022-09-16T10:03:46.484Z,46.07
2022-09-16T10:06:14.211Z,46.06
2022-09-16T10:08:41.905Z,45.59
2022-09-16T10:11:09.631Z,45.98
2022-09-16T10:13:37.303Z,45.74
2022-09-16T10:16:04.975Z,45.56
2022-09-16T10:18:33.499Z,46.12
2022-09-16T10:21:01.177Z,46.07
2022-09-16T10:23:30.320Z,46.04
2022-09-16T10:25:58.289Z,45.62
2022-09-16T10:28:26.034Z,45.68
2022-09-16T10:30:53.750Z,46.07
2022-09-16T10:33:21.498Z,45.64
2022-09-16T10:35:49.209Z,45.75
2022-09-16T10:38:18.224Z,46.22
2022-09-16T10:40:45.946Z,45.52
2022-09-16T10:43:13.608Z,45.83
2022-09-16T10:45:41.347Z,45.86
2022-09-16T10:48:09.035Z,46.14
2022-09-16T10:50:36.864Z,46.03
2022-09-16T10:53:04.548Z,46.27
2022-09-16T10:55:35.274Z,46.13
2022-09-16T10:58:02.976Z,46.06
2022-09-16T11:00:31.894Z,45.54
2022-09-16T11:02:59.743Z,46.02
2022-09-16T11:05:27.479Z,45.77
2022-09-16T11:07:55.293Z,45.52
2022-09-16T11:10:23.308Z,45.83
2022-09-16T11:12:51.054Z,46.10
2022-09-16T11:15:18.795Z,46.09
2022-09-16T11:17:46.942Z,45.84
2022-09-16T11:20:14.756Z,45.92
2022-09-16T11:22:42.485Z,45.48
2022-09-16T11:25:10.372Z,45.85
2022-09-16T11:27:38.157Z,45.63
2022-09-16T11:30:06.149Z,45.74
2022-09-16T11:32:35.580Z,45.50
2022-09-16T11:35:03.503Z,45.59
2022-09-16T11:37:31.867Z,45.87
2022-09-16T11:39:59.636Z,45.58
2022-09-16T11:42:27.411Z,45.67
2022-09-16T11:44:55.283Z,45.73
2022-09-16T11:47:23.010Z,45.86
2022-09-16T11:49:50.748Z,45.85
2022-09-16T11:52:18.514Z,45.47
2022-09-16T11:54:46.241Z,45.44
2022-09-16T11:57:15.086Z,46.00
2022-09-16T11:59:43.098Z,45.80
2022-09-16T12:02:11.321Z,45.94
2022-09-16T12:04:39.473Z,45.34
2022-09-16T12:07:07.188Z,45.58
2022-09-16T12:09:34.916Z,45.76
2022-09-16T12:12:02.684Z,45.80
2022-09-16T12:14:31.481Z,45.26
2022-09-16T12:16:59.205Z,45.75
2022-09-16T12:19:27.036Z,45.39
2022-09-16T12:21:57.899Z,45.38
2022-09-16T12:24:26.103Z,46.03
2022-09-16T12:26:54.291Z,45.68
2022-09-16T12:29:22.059Z,45.34
2022-09-16T12:31:49.819Z,45.49
2022-09-16T12:34:18.469Z,45.81
2022-09-16T12:36:46.206Z,45.54
2022-09-16T12:39:13.918Z,45.95
2022-09-16T12:41:41.939Z,45.61
2022-09-16T12:44:30.680Z,45.48
2022-09-16T12:46:57.418Z,45.94
2022-09-16T12:49:25.178Z,45.34
2022-09-16T12:51:52.877Z,45.51
2022-09-16T12:54:20.581Z,45.84
2022-09-16T12:56:48.326Z,45.71
2022-09-16T12:59:16.085Z,45.10
2022-09-16T13:01:43.908Z,45.70
2022-09-16T13:04:12.119Z,45.37
2022-09-16T13:06:39.799Z,45.25
2022-09-16T13:09:07.521Z,45.15
2022-09-16T13:14:23.033Z,45.82
2022-09-16T13:16:50.809Z,45.59
2022-09-16T13:19:18.499Z,45.70
2022-09-16T13:21:47.147Z,45.78
2022-09-16T13:24:14.844Z,45.52
2022-09-16T13:26:47.076Z,45.81
2022-09-16T13:29:14.783Z,45.66
2022-09-16T13:31:42.708Z,45.18
2022-09-16T13:34:10.451Z,45.21
2022-09-16T13:36:38.165Z,45.59
2022-09-16T13:39:05.896Z,45.04
2022-09-16T13:41:33.683Z,45.48
2022-09-16T13:44:01.306Z,45.59
2022-09-16T13:46:29.003Z,45.06
2022-09-16T13:48:56.799Z,45.65
2022-09-16T13:51:24.449Z,45.58
2022-09-16T13:53:52.198Z,45.40
2022-09-16T13:56:19.927Z,45.13
2022-09-16T13:58:47.553Z,45.06
2022-09-16T14:01:15.301Z,45.41
2022-09-16T14:03:43.009Z,45.39
2022-09-16T14:06:10.720Z,45.70
2022-09-16T14:08:38.484Z,45.33
2022-09-16T14:11:06.166Z,45.23
2022-09-16T14:13:33.929Z,45.22
2022-09-16T14:16:01.712Z,45.07
2022-09-16T14:18:29.444Z,45.46
2022-09-16T14:20:57.181Z,45.56
2022-09-16T14:23:24.892Z,45.51
2022-09-16T14:25:55.555Z,45.33
2022-09-16T14:28:23.598Z,44.94
2022-09-16T14:30:51.391Z,45.61
2022-09-16T14:33:19.891Z,45.13
2022-09-16T14:35:47.591Z,45.45
2022-09-16T14:38:41.294Z,45.57
2022-09-16T14:41:02.958Z,45.17
2022-09-16T14:43:30.650Z,45.38
2022-09-16T14:48:30.992Z,45.80
2022-09-16T14:50:58.930Z,45.13
2022-09-16T14:53:34.775Z,45.84
2022-09-16T14:56:03.054Z,45.80
2022-09-16T14:58:30.794Z,45.82
2022-09-16T15:00:59.047Z,45.27
2022-09-16T15:03:26.684Z,45.84
2022-09-16T15:05:54.332Z,45.24
2022-09-16T15:08:22.044Z,45.11
2022-09-16T15:10:52.391Z,45.34
2022-09-16T15:13:20.839Z,45.15
2022-09-16T15:15:48.525Z,45.30
2022-09-16T15:18:16.169Z,45.29
2022-09-16T15:20:43.884Z,45.33
2022-09-16T15:23:12.970Z,45.68
2022-09-16T15:25:40.724Z,45.84
2022-09-16T15:28:08.414Z,45.70
2022-09-16T15:30:36.284Z,45.60
2022-09-16T15:33:04.152Z,45.47
2022-09-16T15:35:35.546Z,45.76
2022-09-16T15:38:03.711Z,45.25
2022-09-16T15:40:31.775Z,45.85
2022-09-16T15:42:59.827Z,45.91
2022-09-16T15:45:27.566Z,46.04
2022-09-16T15:47:55.494Z,45.46
2022-09-16T15:50:23.523Z,45.63
2022-09-16T15:52:51.416Z,45.48
2022-09-16T15:55:19.109Z,45.49
2022-09-16T15:57:46.761Z,45.33
2022-09-16T16:00:16.209Z,45.50
2022-09-16T16:02:43.971Z,45.89
2022-09-16T16:05:11.755Z,45.74
2022-09-16T16:07:39.877Z,45.66
2022-09-16T16:10:08.773Z,45.45
2022-09-16T16:12:36.537Z,45.69
2022-09-16T16:15:04.636Z,45.29
2022-09-16T16:17:32.268Z,45.91
2022-09-16T16:20:00.087Z,45.22
2022-09-16T16:22:29.074Z,45.74
2022-09-16T16:24:56.839Z,45.64
2022-09-16T16:27:24.639Z,45.61
2022-09-16T16:29:53.622Z,45.21
2022-09-16T16:32:21.517Z,45.17
2022-09-16T16:34:50.144Z,45.79
2022-09-16T16:37:40.178Z,45.11
2022-09-16T16:40:05.850Z,45.32
2022-09-16T16:42:33.722Z,45.65
2022-09-16T16:45:01.679Z,45.32
2022-09-16T16:47:29.392Z,45.62
2022-09-16T16:49:57.629Z,45.27
2022-09-16T16:52:25.282Z,45.71
2022-09-16T16:54:52.970Z,45.58
2022-09-16T16:57:20.607Z,45.39
2022-09-16T16:59:48.260Z,45.49
2022-09-16T17:02:16.352Z,45.70
2022-09-16T17:04:44.053Z,45.84
2022-09-16T17:09:50.561Z,45.76
2022-09-16T17:12:18.409Z,45.73
2022-09-16T17:14:46.118Z,45.28
2022-09-16T17:17:13.789Z,45.61
2022-09-16T17:19:41.533Z,45.29
2022-09-16T17:22:09.427Z,45.50
2022-09-16T17:24:37.229Z,45.45
2022-09-16T17:27:05.027Z,45.72
2022-09-16T17:29:32.974Z,45.65
2022-09-16T17:32:02.936Z,45.24
2022-09-16T17:34:31.376Z,45.73
2022-09-16T17:36:59.181Z,45.81
2022-09-16T17:39:26.901Z,45.32
2022-09-16T17:41:56.856Z,45.15
2022-09-16T17:44:24.661Z,45.18
2022-09-16T17:46:52.405Z,45.58
2022-09-16T17:49:20.266Z,45.12
2022-09-16T17:51:47.975Z,45.51
2022-09-16T17:54:15.907Z,45.50
2022-09-16T17:56:43.589Z,45.23
2022-09-16T17:59:11.492Z,45.22
2022-09-16T18:01:39.146Z,45.87
2022-09-16T18:04:07.204Z,45.61
2022-09-16T18:06:35.833Z,45.41
2022-09-16T18:09:03.831Z,45.47
2022-09-16T18:11:31.492Z,45.53
2022-09-16T18:13:59.287Z,45.13
2022-09-16T18:16:27.029Z,45.56
2022-09-16T18:18:54.747Z,45.94
2022-09-16T18:21:23.188Z,45.61
2022-09-16T18:23:51.065Z,45.37
2022-09-16T18:26:19.183Z,45.72
2022-09-16T18:29:08.756Z,45.42
2022-09-16T18:31:34.901Z,45.53
2022-09-16T18:34:02.585Z,45.16
2022-09-16T18:36:30.980Z,45.60
2022-09-16T18:38:59.126Z,45.60
2022-09-16T18:41:26.832Z,45.42
2022-09-16T18:43:54.620Z,45.26
2022-09-16T18:46:26.315Z,45.48
2022-09-16T18:48:54.640Z,45.57
2022-09-16T18:51:22.524Z,45.42
2022-09-16T18:53:50.377Z,45.66
2022-09-16T18:56:18.056Z,45.65
2022-09-16T18:59:03.679Z,45.09
2022-09-16T19:01:35.669Z,45.21
2022-09-16T19:04:03.984Z,45.59
2022-09-16T19:06:31.730Z,45.69
2022-09-16T19:08:59.513Z,45.65
2022-09-16T19:11:27.224Z,45.33
2022-09-16T19:13:55.647Z,45.27
2022-09-16T19:16:23.441Z,45.65
2022-09-16T19:18:51.139Z,45.29
2022-09-16T19:21:18.941Z,45.30
2022-09-16T19:23:47.135Z,45.32
2022-09-16T19:26:15.036Z,45.11
2022-09-16T19:28:42.731Z,45.57
2022-09-16T19:31:10.461Z,45.58
2022-09-16T19:33:38.176Z,45.56
2022-09-16T19:36:06.153Z,45.17
2022-09-16T19:38:33.848Z,45.77
2022-09-16T19:41:01.493Z,45.36
2022-09-16T19:43:29.239Z,45.88
2022-09-16T19:45:57.376Z,45.37
2022-09-16T19:48:25.253Z,45.71
2022-09-16T19:50:53.203Z,45.74
2022-09-16T19:53:20.936Z,45.33
2022-09-16T19:55:48.625Z,45.49
2022-09-16T19:58:16.304Z,45.50
2022-09-16T20:00:55.825Z,45.89
2022-09-16T20:03:23.813Z,45.45
2022-09-16T20:05:51.614Z,45.84
2022-09-16T20:08:19.277Z,45.85
2022-09-16T20:10:46.992Z,45.40
2022-09-16T20:13:14.939Z,45.85
2022-09-16T20:15:42.664Z,45.85
2022-09-16T20:18:10.478Z,45.57
2022-09-16T20:20:38.159Z,45.72
2022-09-16T20:23:05.865Z,45.76
2022-09-16T20:25:33.800Z,46.02
2022-09-16T20:28:01.508Z,45.82
2022-09-16T20:30:29.256Z,46.03
2022-09-16T20:32:57.094Z,45.53
2022-09-16T20:35:24.795Z,45.50
2022-09-16T20:37:52.478Z,45.67
2022-09-16T20:40:20.211Z,46.06
2022-09-16T20:42:48.095Z,45.75
2022-09-16T20:45:15.767Z,45.86
2022-09-16T20:47:43.477Z,45.28
2022-09-16T20:50:11.215Z,45.85
2022-09-16T20:52:38.862Z,45.39
2022-09-16T20:55:06.595Z,45.48
2022-09-16T20:57:34.411Z,45.95
2022-09-16T21:00:02.222Z,45.53
2022-09-16T21:02:29.989Z,45.64
2022-09-16T21:05:03.694Z,45.68
2022-09-16T21:07:31.528Z,45.55
2022-09-16T21:09:59.294Z,45.65
2022-09-16T21:12:27.236Z,46.06
2022-09-16T21:14:55.112Z,45.63
2022-09-16T21:17:22.793Z,45.59
2022-09-16T21:19:51.325Z,45.58
2022-09-16T21:22:19.526Z,45.74
2022-09-16T21:24:47.228Z,45.46
2022-09-16T21:27:14.931Z,45.95
2022-09-16T21:29:43.403Z,45.92
2022-09-16T21:32:11.101Z,45.52
2022-09-16T21:34:38.787Z,46.13
2022-09-16T21:37:06.568Z,45.49
2022-09-16T21:39:34.474Z,45.95
2022-09-16T21:42:02.209Z,45.86
2022-09-16T21:44:30.191Z,45.61
2022-09-16T21:46:57.915Z,45.86
2022-09-16T21:49:25.720Z,45.72
2022-09-16T21:51:53.539Z,45.81
2022-09-16T21:56:49.342Z,45.99
2022-09-16T21:59:18.974Z,45.62
2022-09-16T22:01:46.916Z,45.51
2022-09-16T22:04:14.684Z,46.17
2022-09-16T22:06:42.336Z,46.09
2022-09-16T22:09:10.036Z,45.96
2022-09-16T22:11:38.500Z,45.65
2022-09-16T22:16:34.173Z,45.92
2022-09-16T22:19:01.839Z,46.13
2022-09-16T22:21:29.525Z,45.74
2022-09-16T22:23:57.315Z,45.72
2022-09-16T22:26:25.019Z,46.04
2022-09-16T22:28:52.665Z,46.11
2022-09-16T22:31:20.529Z,46.07
2022-09-16T22:33:48.305Z,45.61
2022-09-16T22:36:16.078Z,45.61
2022-09-16T22:38:43.809Z,45.62
2022-09-16T22:41:11.504Z,45.92
2022-09-16T22:43:39.495Z,46.03
2022-09-16T22:46:07.400Z,45.53
2022-09-16T22:48:35.201Z,45.56
2022-09-16T22:51:02.915Z,46.10
2022-09-16T22:53:30.642Z,45.76
2022-09-16T22:55:58.366Z,45.86
2022-09-16T22:58:26.052Z,45.55
2022-09-16T23:00:53.804Z,45.41
2022-09-16T23:03:21.898Z,45.86
2022-09-16T23:05:49.599Z,45.90
2022-09-16T23:08:18.194Z,45.91
2022-09-16T23:10:45.968Z,45.97
2022-09-16T23:13:13.681Z,46.13
2022-09-16T23:15:41.427Z,46.02
2022-09-16T23:18:09.150Z,45.94
2022-09-16T23:20:36.893Z,45.95
2022-09-16T23:23:04.617Z,45.34
2022-09-16T23:25:32.294Z,46.13
2022-09-16T23:27:59.992Z,45.97
2022-09-16T23:30:30.521Z,45.84
2022-09-16T23:32:58.328Z,45.56
2022-09-16T23:35:26.751Z,45.97
2022-09-16T23:37:56.829Z,45.78
2022-09-16T23:40:31.778Z,45.96
2022-09-16T23:42:59.453Z,45.61
2022-09-16T23:45:27.165Z,45.75
2022-09-16T23:47:54.945Z,46.01
2022-09-16T23:50:22.618Z,45.77
2022-09-16T23:52:50.315Z,45.58
2022-09-16T23:55:18.068Z,45.92
2022-09-16T23:57:45.790Z,45.52
